createdAt,value
2023-05-19T00:00:15.683Z,10.97
2023-05-19T00:03:24.680Z,10.55
2023-05-19T00:06:32.011Z,10.98
2023-05-19T00:09:46.690Z,10.40
2023-05-19T00:12:53.840Z,10.58
2023-05-19T00:16:00.283Z,10.77
2023-05-19T00:19:04.525Z,11.00
2023-05-19T00:22:10.267Z,10.66
2023-05-19T00:25:12.918Z,10.50
2023-05-19T00:28:21.921Z,10.96
2023-05-19T00:31:27.120Z,10.95
2023-05-19T00:34:34.093Z,11.00
2023-05-19T00:37:36.711Z,10.80
2023-05-19T00:40:41.941Z,11.13
2023-05-19T00:43:44.738Z,10.60
2023-05-19T00:46:47.465Z,10.82
2023-05-19T00:49:54.114Z,11.11
2023-05-19T00:52:57.083Z,10.66
2023-05-19T00:56:00.717Z,10.79
2023-05-19T00:59:04.697Z,10.85
2023-05-19T01:02:07.771Z,11.01
2023-05-19T01:05:10.652Z,10.60
2023-05-19T01:08:13.810Z,11.01
2023-05-19T01:11:19.166Z,10.79
2023-05-19T01:14:22.237Z,10.65
2023-05-19T01:17:45.131Z,10.65
2023-05-19T01:20:53.918Z,10.73
2023-05-19T01:24:23.356Z,10.81
2023-05-19T01:27:51.212Z,11.13
2023-05-19T01:30:55.930Z,11.07
2023-05-19T01:33:59.408Z,10.69
2023-05-19T01:37:03.737Z,10.49
2023-05-19T01:40:08.204Z,10.49
2023-05-19T01:43:14.153Z,10.58
2023-05-19T01:46:18.038Z,10.55
2023-05-19T01:49:23.972Z,10.95
2023-05-19T01:52:29.528Z,11.01
2023-05-19T01:55:32.477Z,10.75
2023-05-19T01:58:44.897Z,11.06
2023-05-19T02:01:57.489Z,10.84
2023-05-19T02:05:13.650Z,10.68
2023-05-19T02:08:40.169Z,11.07
2023-05-19T02:11:53.654Z,10.69
2023-05-19T02:15:09.996Z,11.05
2023-05-19T02:18:14.336Z,11.05
2023-05-19T02:21:17.708Z,10.97
2023-05-19T02:24:23.062Z,10.58
2023-05-19T02:27:26.465Z,10.95
2023-05-19T02:30:30.415Z,10.63
2023-05-19T02:33:36.536Z,10.63
2023-05-19T02:36:45.735Z,10.60
2023-05-19T02:39:50.183Z,10.94
2023-05-19T02:42:55.921Z,10.67
2023-05-19T02:46:04.504Z,10.69
2023-05-19T02:49:14.520Z,10.57
2023-05-19T02:52:17.340Z,10.90
2023-05-19T02:55:20.271Z,10.56
2023-05-19T02:58:28.420Z,10.99
2023-05-19T03:01:32.826Z,10.59
2023-05-19T03:04:41.875Z,11.03
2023-05-19T03:07:44.947Z,11.14
2023-05-19T03:10:47.987Z,10.77
2023-05-19T03:13:50.793Z,11.14
2023-05-19T03:16:53.902Z,10.89
2023-05-19T03:20:00.537Z,10.79
2023-05-19T03:23:03.297Z,10.79
2023-05-19T03:26:08.414Z,11.23
2023-05-19T03:29:11.585Z,10.80
2023-05-19T03:32:15.798Z,10.76
2023-05-19T03:35:18.967Z,11.21
2023-05-19T03:38:21.753Z,10.83
2023-05-19T03:41:34.505Z,10.71
2023-05-19T03:44:44.840Z,10.95
2023-05-19T03:47:51.243Z,11.11
2023-05-19T03:51:05.094Z,10.97
2023-05-19T03:54:08.429Z,11.21
2023-05-19T03:57:11.476Z,11.01
2023-05-19T04:00:20.448Z,11.33
2023-05-19T04:03:34.618Z,11.01
2023-05-19T04:06:40.456Z,11.31
2023-05-19T04:09:46.383Z,11.45
2023-05-19T04:12:49.197Z,11.06
2023-05-19T04:15:54.824Z,11.37
2023-05-19T04:18:57.601Z,10.89
2023-05-19T04:22:00.772Z,11.28
2023-05-19T04:25:08.644Z,11.03
2023-05-19T04:28:13.694Z,11.41
2023-05-19T04:31:16.680Z,11.55
2023-05-19T04:34:20.160Z,11.23
2023-05-19T04:37:24.376Z,11.14
2023-05-19T04:40:31.643Z,11.28
2023-05-19T04:43:34.764Z,11.22
2023-05-19T04:46:37.783Z,11.42
2023-05-19T04:49:41.648Z,11.74
2023-05-19T04:52:47.595Z,11.40
2023-05-19T04:55:51.134Z,11.60
2023-05-19T04:58:54.073Z,11.50
2023-05-19T05:01:57.743Z,11.42
2023-05-19T05:05:23.501Z,11.56
2023-05-19T05:08:27.327Z,12.00
2023-05-19T05:11:30.681Z,12.09
2023-05-19T05:14:34.160Z,11.99
2023-05-19T05:17:37.930Z,11.93
2023-05-19T05:20:43.135Z,11.59
2023-05-19T05:23:49.340Z,12.06
2023-05-19T05:26:56.120Z,12.21
2023-05-19T05:29:59.351Z,12.19
2023-05-19T05:33:09.979Z,12.25
2023-05-19T05:36:21.466Z,12.12
2023-05-19T05:39:32.098Z,12.48
2023-05-19T05:42:38.299Z,12.53
2023-05-19T05:45:42.012Z,12.53
2023-05-19T05:48:50.777Z,12.68
2023-05-19T05:52:05.009Z,12.79
2023-05-19T05:55:21.267Z,13.11
2023-05-19T05:58:24.873Z,13.34
2023-05-19T06:01:28.344Z,13.52
2023-05-19T06:04:31.219Z,14.27
2023-05-19T06:07:34.305Z,14.45
2023-05-19T06:10:39.180Z,14.37
2023-05-19T06:13:44.766Z,15.05
2023-05-19T06:16:55.167Z,15.23
2023-05-19T06:35:20.626Z,16.11
2023-05-19T06:38:23.800Z,16.07
2023-05-19T06:41:27.121Z,15.85
2023-05-19T06:44:30.036Z,15.94
2023-05-19T10:00:20.256Z,20.19
2023-05-19T10:03:24.173Z,20.48
2023-05-19T10:06:27.154Z,20.35
2023-05-19T10:09:30.126Z,20.45
2023-05-19T10:12:33.493Z,20.56
2023-05-19T10:15:50.080Z,19.96
2023-05-19T10:19:00.935Z,20.58
2023-05-19T10:22:06.435Z,20.67
2023-05-19T10:25:10.813Z,20.37
2023-05-19T10:28:16.421Z,20.16
2023-05-19T10:31:22.709Z,20.30
2023-05-19T10:34:40.666Z,21.18
2023-05-19T10:37:52.100Z,21.53
2023-05-19T10:40:54.778Z,21.17
2023-05-19T10:44:19.329Z,21.34
2023-05-19T10:47:31.721Z,21.09
2023-05-19T10:50:38.052Z,20.78
2023-05-19T10:53:47.520Z,20.94
2023-05-19T10:56:50.203Z,20.79
2023-05-19T10:59:52.786Z,20.97
2023-05-19T11:03:13.710Z,21.28
2023-05-19T11:06:30.948Z,21.01
2023-05-19T11:09:40.731Z,21.56
2023-05-19T11:12:46.053Z,21.89
2023-05-19T11:15:50.169Z,22.16
2023-05-19T11:18:55.052Z,22.32
2023-05-19T11:22:08.285Z,21.76
2023-05-19T11:25:10.967Z,21.83
2023-05-19T11:28:16.980Z,21.75
2023-05-19T11:31:19.677Z,22.23
2023-05-19T11:34:26.095Z,22.33
2023-05-19T11:37:32.286Z,22.33
2023-05-19T11:40:36.387Z,22.48
2023-05-19T11:43:39.107Z,22.35
2023-05-19T11:46:41.785Z,22.59
2023-05-19T11:49:47.905Z,22.44
2023-05-19T11:52:52.012Z,22.32
2023-05-19T11:56:03.044Z,22.64
2023-05-19T11:59:06.067Z,22.16
2023-05-19T12:02:20.060Z,22.11
2023-05-19T12:05:24.601Z,22.32
2023-05-19T12:08:29.346Z,21.73
2023-05-19T12:11:32.071Z,21.68
2023-05-19T12:14:36.032Z,22.11
2023-05-19T12:17:38.747Z,21.81
2023-05-19T12:20:41.514Z,21.08
2023-05-19T12:23:47.162Z,21.02
2023-05-19T12:26:50.565Z,21.25
2023-05-19T12:29:57.356Z,21.19
2023-05-19T12:33:02.945Z,22.07
2023-05-19T12:36:09.374Z,22.90
2023-05-19T12:39:14.189Z,23.17
2023-05-19T12:42:17.656Z,23.50
2023-05-19T12:45:26.009Z,22.54
2023-05-19T12:48:31.638Z,22.16
2023-05-19T12:51:42.976Z,21.74
2023-05-19T12:54:48.610Z,22.31
2023-05-19T12:57:57.188Z,22.34
2023-05-19T13:01:00.537Z,22.83
2023-05-19T13:04:06.649Z,22.60
2023-05-19T13:07:09.900Z,22.54
2023-05-19T13:10:14.847Z,23.42
2023-05-19T13:13:17.735Z,24.65
2023-05-19T13:16:20.393Z,25.29
2023-05-19T13:19:26.270Z,27.00
2023-05-19T13:22:28.970Z,29.12
2023-05-19T13:25:35.209Z,30.15
2023-05-19T13:28:37.874Z,28.16
2023-05-19T13:31:41.217Z,27.37
2023-05-19T13:34:44.090Z,27.48
2023-05-19T13:37:49.969Z,29.96
2023-05-19T13:40:52.640Z,30.30
2023-05-19T13:44:01.147Z,28.72
2023-05-19T13:47:03.813Z,30.11
2023-05-19T13:50:09.861Z,31.10
2023-05-19T13:53:12.563Z,28.57
2023-05-19T13:56:15.555Z,29.63
2023-05-19T13:59:18.207Z,27.81
2023-05-19T14:02:24.405Z,25.26
2023-05-19T14:05:29.146Z,24.64
2023-05-19T14:08:34.086Z,24.13
2023-05-19T14:11:36.737Z,23.95
2023-05-19T14:14:41.725Z,24.52
2023-05-19T14:17:44.451Z,25.17
2023-05-19T14:20:50.225Z,28.40
2023-05-19T14:23:52.927Z,27.55
2023-05-19T14:26:58.047Z,31.42
2023-05-19T14:30:00.712Z,32.88
2023-05-19T14:33:03.421Z,32.08
2023-05-19T14:36:10.476Z,30.02
2023-05-19T14:39:13.206Z,28.92
2023-05-19T14:42:15.849Z,27.28
2023-05-19T14:45:18.550Z,26.21
2023-05-19T14:48:23.414Z,26.15
2023-05-19T14:51:26.032Z,26.25
2023-05-19T14:54:28.617Z,28.51
2023-05-19T14:57:36.952Z,30.40
2023-05-19T15:00:39.780Z,30.43
2023-05-19T15:03:49.754Z,31.23
2023-05-19T15:07:05.740Z,31.50
2023-05-19T15:10:14.430Z,31.23
2023-05-19T15:13:19.169Z,31.60
2023-05-19T15:16:21.850Z,31.76
2023-05-19T15:19:24.747Z,29.79
2023-05-19T15:22:27.569Z,29.90
2023-05-19T15:25:30.862Z,30.35
2023-05-19T15:28:34.289Z,29.56
2023-05-19T15:31:39.633Z,30.85
2023-05-19T15:34:45.224Z,31.14
2023-05-19T15:37:47.805Z,31.23
2023-05-19T15:40:50.406Z,31.65
2023-05-19T15:43:56.449Z,31.87
2023-05-19T15:47:01.670Z,32.15
2023-05-19T15:50:04.506Z,32.31
2023-05-19T15:53:08.395Z,31.94
2023-05-19T15:56:11.122Z,32.54
2023-05-19T15:59:13.878Z,32.40
2023-05-19T16:02:16.666Z,30.67
2023-05-19T16:05:19.470Z,31.06
2023-05-19T16:08:22.455Z,28.69
2023-05-19T16:11:25.122Z,26.83
2023-05-19T16:14:31.150Z,28.48
2023-05-19T16:17:34.048Z,28.56
2023-05-19T16:20:36.730Z,26.96
2023-05-19T16:23:40.478Z,25.22
2023-05-19T16:26:43.081Z,24.30
2023-05-19T16:29:51.061Z,23.65
2023-05-19T16:32:56.304Z,23.06
2023-05-19T16:36:00.086Z,22.72
2023-05-19T16:39:02.766Z,23.25
2023-05-19T16:42:05.688Z,24.08
2023-05-19T16:45:08.999Z,24.97
2023-05-19T16:48:11.620Z,24.88
2023-05-19T16:51:14.222Z,24.25
2023-05-19T16:54:16.861Z,24.86
2023-05-19T16:57:22.455Z,25.55
2023-05-19T17:00:27.593Z,26.01
2023-05-19T17:03:32.992Z,24.70
2023-05-19T17:06:35.980Z,23.55
2023-05-19T17:09:38.567Z,23.06
2023-05-19T17:12:41.124Z,23.91
2023-05-19T17:15:43.725Z,24.73
2023-05-19T17:18:56.719Z,24.85
2023-05-19T17:21:59.509Z,24.68
2023-05-19T17:25:07.746Z,24.64
2023-05-19T17:28:16.485Z,23.70
2023-05-19T17:31:21.319Z,23.60
2023-05-19T17:34:24.018Z,23.10
2023-05-19T17:37:27.348Z,22.64
2023-05-19T17:40:30.137Z,21.67
2023-05-19T17:43:32.762Z,21.42
2023-05-19T17:46:39.440Z,20.85
2023-05-19T17:49:47.916Z,20.11
2023-05-19T17:52:54.614Z,19.49
2023-05-19T17:55:59.682Z,18.90
2023-05-19T17:59:03.213Z,18.52
2023-05-19T18:02:06.264Z,18.24
2023-05-19T18:05:14.854Z,17.93
2023-05-19T18:08:18.236Z,17.65
2023-05-19T18:11:21.469Z,17.47
2023-05-19T18:14:24.252Z,17.32
2023-05-19T18:17:26.896Z,17.12
2023-05-19T18:20:31.201Z,16.90
2023-05-19T18:23:34.019Z,16.82
2023-05-19T18:26:41.784Z,16.73
2023-05-19T18:29:44.516Z,16.66
2023-05-19T18:32:47.168Z,16.41
2023-05-19T18:35:50.341Z,16.20
2023-05-19T18:38:58.225Z,15.94
2023-05-19T18:42:04.770Z,15.61
2023-05-19T18:45:13.539Z,15.92
2023-05-19T18:48:18.131Z,15.75
2023-05-19T18:51:26.984Z,15.50
2023-05-19T18:54:29.759Z,15.20
2023-05-19T18:57:32.376Z,14.90
2023-05-19T19:00:37.854Z,14.86
2023-05-19T19:03:42.040Z,14.76
2023-05-19T19:06:44.768Z,14.73
2023-05-19T19:09:47.370Z,14.56
2023-05-19T19:12:50.094Z,14.51
2023-05-19T19:15:52.986Z,14.32
2023-05-19T19:18:55.798Z,14.16
2023-05-19T19:21:58.543Z,14.06
2023-05-19T19:25:03.820Z,14.02
2023-05-19T19:28:09.275Z,13.99
2023-05-19T19:31:12.080Z,13.99
2023-05-19T19:34:14.774Z,13.92
2023-05-19T19:37:19.769Z,14.13
2023-05-19T19:40:26.450Z,13.99
2023-05-19T19:43:29.134Z,13.92
2023-05-19T19:46:34.593Z,13.77
2023-05-19T19:49:37.188Z,13.71
2023-05-19T19:52:41.163Z,13.64
2023-05-19T19:55:43.966Z,13.49
2023-05-19T19:58:46.661Z,13.37
2023-05-19T20:01:52.181Z,13.45
2023-05-19T20:04:57.821Z,13.41
2023-05-19T20:08:00.829Z,13.44
2023-05-19T20:11:03.560Z,13.45
2023-05-19T20:14:06.424Z,13.41
2023-05-19T20:17:09.159Z,13.36
2023-05-19T20:20:12.373Z,13.31
2023-05-19T20:23:16.316Z,13.24
2023-05-19T20:26:19.070Z,13.21
2023-05-19T20:29:25.103Z,13.22
2023-05-19T20:32:30.579Z,13.19
2023-05-19T20:35:33.458Z,13.08
2023-05-19T20:38:36.313Z,13.19
2023-05-19T20:41:38.992Z,13.28
2023-05-19T20:44:41.713Z,13.24
2023-05-19T20:47:44.474Z,13.07
2023-05-19T20:50:47.103Z,13.10
2023-05-19T20:53:52.039Z,13.00
2023-05-19T20:56:59.426Z,12.94
2023-05-19T21:00:05.683Z,12.86
2023-05-19T21:03:11.763Z,12.78
2023-05-19T21:06:14.546Z,12.84
2023-05-19T21:09:17.239Z,12.64
2023-05-19T21:12:24.038Z,12.41
2023-05-19T21:15:27.289Z,12.58
2023-05-19T21:18:29.907Z,12.62
2023-05-19T21:21:33.599Z,12.73
2023-05-19T21:24:36.340Z,12.71
2023-05-19T21:27:42.128Z,12.72
2023-05-19T21:30:49.095Z,12.54
2023-05-19T21:33:51.874Z,12.53
2023-05-19T21:36:54.544Z,12.46
2023-05-19T21:40:00.049Z,12.36
2023-05-19T21:43:03.917Z,12.26
2023-05-19T21:46:09.650Z,12.24
2023-05-19T21:49:12.339Z,12.10
2023-05-19T21:52:15.070Z,12.20
2023-05-19T21:55:17.667Z,12.23
2023-05-19T21:58:20.520Z,12.20
2023-05-19T22:01:31.651Z,12.26
2023-05-19T22:04:34.404Z,12.25
2023-05-19T22:07:37.142Z,12.13
2023-05-19T22:10:39.880Z,12.27
2023-05-19T22:13:42.703Z,12.34
2023-05-19T22:16:47.595Z,12.29
2023-05-19T22:19:50.487Z,12.37
2023-05-19T22:22:53.118Z,12.52
2023-05-19T22:25:55.961Z,12.65
2023-05-19T22:28:58.536Z,12.82
2023-05-19T22:32:12.326Z,12.96
2023-05-19T22:35:15.162Z,12.95
2023-05-19T22:38:17.786Z,13.03
2023-05-19T22:41:20.436Z,13.03
2023-05-19T22:44:23.182Z,13.11
2023-05-19T22:47:25.957Z,13.10
2023-05-19T22:50:28.758Z,13.08
2023-05-19T22:53:31.436Z,13.09
2023-05-19T22:56:34.259Z,13.03
2023-05-19T22:59:38.382Z,13.20
2023-05-19T23:02:45.276Z,13.21
2023-05-19T23:05:47.911Z,13.17
2023-05-19T23:09:04.121Z,13.13
2023-05-19T23:12:07.140Z,13.10
2023-05-19T23:15:11.126Z,13.08
2023-05-19T23:18:16.689Z,12.96
2023-05-19T23:21:19.497Z,12.86
2023-05-19T23:24:22.171Z,12.71
2023-05-19T23:27:24.883Z,12.64
2023-05-19T23:30:31.507Z,12.61
2023-05-19T23:33:34.147Z,12.53
2023-05-19T23:36:37.071Z,12.51
2023-05-19T23:39:42.773Z,12.41
2023-05-19T23:42:47.972Z,12.55
2023-05-19T23:45:50.771Z,12.48
2023-05-19T23:48:53.416Z,12.38
2023-05-19T23:51:56.173Z,12.43
2023-05-19T23:54:58.921Z,12.54
2023-05-19T23:58:04.322Z,12.35
